createdAt,value
2023-02-26T00:00:15.312Z,4.00
2023-02-26T00:02:46.084Z,4.00
2023-02-26T00:05:14.034Z,4.00
2023-02-26T00:07:42.042Z,4.00
2023-02-26T00:10:11.880Z,3.50
2023-02-26T00:12:40.276Z,3.25
2023-02-26T00:15:13.277Z,4.00
2023-02-26T00:17:45.832Z,3.25
2023-02-26T00:20:16.869Z,2.00
2023-02-26T00:22:45.367Z,3.00
2023-02-26T00:25:13.590Z,3.00
2023-02-26T00:27:42.286Z,3.75
2023-02-26T00:30:11.816Z,3.00
2023-02-26T00:32:40.716Z,3.00
2023-02-26T00:35:12.718Z,3.50
2023-02-26T00:37:51.922Z,3.00
2023-02-26T00:40:22.570Z,3.00
2023-02-26T00:42:51.049Z,3.00
2023-02-26T00:45:19.740Z,2.75
2023-02-26T00:47:50.600Z,3.00
2023-02-26T00:50:21.445Z,3.00
2023-02-26T00:52:58.449Z,3.00
2023-02-26T00:55:28.370Z,3.00
2023-02-26T00:57:56.470Z,2.25
2023-02-26T01:00:24.748Z,3.00
2023-02-26T01:02:53.182Z,3.00
2023-02-26T01:05:23.264Z,3.00
2023-02-26T01:07:55.828Z,2.25
2023-02-26T01:10:24.848Z,2.00
2023-02-26T01:12:53.373Z,2.75
2023-02-26T01:15:22.049Z,2.00
2023-02-26T01:17:52.961Z,2.75
2023-02-26T01:20:23.431Z,3.00
2023-02-26T01:22:54.100Z,3.00
2023-02-26T01:25:25.102Z,2.00
2023-02-26T01:27:53.750Z,2.00
2023-02-26T01:30:22.799Z,2.00
2023-02-26T01:32:53.395Z,2.00
2023-02-26T01:35:36.841Z,2.00
2023-02-26T01:38:05.694Z,2.00
2023-02-26T01:40:55.222Z,2.75
2023-02-26T01:43:26.795Z,2.00
2023-02-26T01:45:58.166Z,2.50
2023-02-26T01:48:34.071Z,2.00
2023-02-26T01:51:03.486Z,2.00
2023-02-26T01:53:31.482Z,2.00
2023-02-26T01:56:01.299Z,2.00
2023-02-26T01:58:32.220Z,2.00
2023-02-26T02:01:00.142Z,2.00
2023-02-26T02:03:28.280Z,2.00
2023-02-26T02:05:57.805Z,2.00
2023-02-26T02:08:27.421Z,1.50
2023-02-26T02:10:55.430Z,2.00
2023-02-26T02:13:31.988Z,2.00
2023-02-26T02:16:04.936Z,2.00
2023-02-26T02:18:37.162Z,2.00
2023-02-26T02:21:38.430Z,1.25
2023-02-26T02:24:10.023Z,1.00
2023-02-26T02:26:46.730Z,1.00
2023-02-26T02:29:44.647Z,1.75
2023-02-26T02:32:15.198Z,1.00
2023-02-26T02:34:46.012Z,2.00
2023-02-26T02:37:17.643Z,2.00
2023-02-26T02:39:47.814Z,2.00
2023-02-26T02:42:22.627Z,2.00
2023-02-26T02:44:52.372Z,1.75
2023-02-26T02:47:21.732Z,2.00
2023-02-26T02:49:51.500Z,1.00
2023-02-26T02:52:22.442Z,1.00
2023-02-26T02:54:52.441Z,1.75
2023-02-26T02:57:22.458Z,1.00
2023-02-26T02:59:52.786Z,1.00
2023-02-26T03:02:24.114Z,1.25
2023-02-26T03:04:52.040Z,1.75
2023-02-26T03:07:19.950Z,1.00
2023-02-26T03:09:48.416Z,2.00
2023-02-26T03:12:16.420Z,1.00
2023-02-26T03:14:44.431Z,1.00
2023-02-26T03:17:24.744Z,1.00
2023-02-26T03:20:01.334Z,1.00
2023-02-26T03:22:32.840Z,1.00
2023-02-26T03:25:03.087Z,1.00
2023-02-26T03:27:32.772Z,2.00
2023-02-26T03:30:02.976Z,1.50
2023-02-26T03:32:33.823Z,1.75
2023-02-26T03:35:04.153Z,1.00
2023-02-26T03:37:34.161Z,1.00
2023-02-26T03:40:05.730Z,1.00
2023-02-26T03:42:35.851Z,1.00
2023-02-26T03:45:06.160Z,0.50
2023-02-26T03:47:38.879Z,1.75
2023-02-26T03:50:08.784Z,1.00
2023-02-26T03:52:38.958Z,1.00
2023-02-26T03:55:09.260Z,1.00
2023-02-26T03:57:37.175Z,1.00
2023-02-26T04:00:06.103Z,1.25
2023-02-26T04:02:36.266Z,1.00
2023-02-26T04:05:07.991Z,1.00
2023-02-26T04:07:35.908Z,1.00
2023-02-26T04:10:04.797Z,1.00
2023-02-26T04:12:32.676Z,1.00
2023-02-26T04:15:00.544Z,1.00
2023-02-26T04:17:30.355Z,1.00
2023-02-26T04:20:00.126Z,1.00
2023-02-26T04:22:28.009Z,1.00
2023-02-26T04:24:55.911Z,1.00
2023-02-26T04:27:23.873Z,1.00
2023-02-26T04:29:52.028Z,0.00
2023-02-26T04:32:20.029Z,1.00
2023-02-26T04:34:48.020Z,1.00
2023-02-26T04:37:17.284Z,1.00
2023-02-26T04:39:45.450Z,0.00
2023-02-26T04:42:13.421Z,1.00
2023-02-26T04:44:41.296Z,0.50
2023-02-26T04:47:09.181Z,0.25
2023-02-26T04:49:37.443Z,0.00
2023-02-26T04:52:05.363Z,0.00
2023-02-26T04:54:34.626Z,0.00
2023-02-26T04:57:02.550Z,0.00
2023-02-26T04:59:30.700Z,1.00
2023-02-26T05:01:58.670Z,0.00
2023-02-26T05:04:26.923Z,1.00
2023-02-26T05:06:55.855Z,1.00
2023-02-26T05:09:24.033Z,0.00
2023-02-26T05:11:53.366Z,1.00
2023-02-26T05:14:21.402Z,1.00
2023-02-26T05:16:49.304Z,1.00
2023-02-26T05:19:17.817Z,0.00
2023-02-26T05:21:45.712Z,0.00
2023-02-26T05:24:13.557Z,0.25
2023-02-26T05:26:41.492Z,0.00
2023-02-26T05:29:10.821Z,0.25
2023-02-26T05:31:38.748Z,1.00
2023-02-26T05:34:06.676Z,0.00
2023-02-26T05:36:34.583Z,0.00
2023-02-26T05:39:02.748Z,0.00
2023-02-26T05:41:30.666Z,0.00
2023-02-26T05:43:59.106Z,0.00
2023-02-26T05:46:28.815Z,0.00
2023-02-26T05:48:57.264Z,0.00
2023-02-26T05:51:25.137Z,0.00
2023-02-26T05:53:53.019Z,0.00
2023-02-26T05:56:21.018Z,0.00
2023-02-26T05:58:49.208Z,0.00
2023-02-26T06:01:17.100Z,0.00
2023-02-26T06:03:46.420Z,0.00
2023-02-26T06:06:16.194Z,0.00
2023-02-26T06:08:44.384Z,0.00
2023-02-26T06:11:12.688Z,0.00
2023-02-26T06:13:40.629Z,0.75
2023-02-26T06:16:08.820Z,0.25
2023-02-26T06:18:37.116Z,0.00
2023-02-26T06:21:06.808Z,0.50
2023-02-26T06:23:34.743Z,0.00
2023-02-26T06:26:02.709Z,0.00
2023-02-26T06:28:30.592Z,1.00
2023-02-26T06:30:58.587Z,0.25
2023-02-26T06:33:26.500Z,0.00
2023-02-26T06:35:54.377Z,0.00
2023-02-26T06:38:24.005Z,0.00
2023-02-26T06:40:52.181Z,0.00
2023-02-26T06:43:20.060Z,1.00
2023-02-26T06:45:48.109Z,0.00
2023-02-26T06:48:16.354Z,0.00
2023-02-26T06:50:44.308Z,0.00
2023-02-26T06:53:12.188Z,0.00
2023-02-26T06:55:45.529Z,0.00
2023-02-26T06:58:13.428Z,0.00
2023-02-26T07:00:41.593Z,0.75
2023-02-26T07:03:10.998Z,0.00
2023-02-26T07:05:38.872Z,0.00
2023-02-26T07:08:07.016Z,0.00
2023-02-26T07:10:35.229Z,0.00
2023-02-26T07:13:04.481Z,0.00
2023-02-26T07:15:32.604Z,0.00
2023-02-26T07:18:01.048Z,0.50
2023-02-26T07:20:29.539Z,0.00
2023-02-26T07:22:57.572Z,0.00
2023-02-26T07:25:25.636Z,0.00
2023-02-26T07:27:54.659Z,0.00
2023-02-26T07:30:23.993Z,1.00
2023-02-26T07:32:51.953Z,0.00
2023-02-26T07:35:20.034Z,0.00
2023-02-26T07:37:47.916Z,0.50
2023-02-26T07:40:16.262Z,0.00
2023-02-26T07:42:44.104Z,0.00
2023-02-26T07:45:12.377Z,0.00
2023-02-26T07:47:41.765Z,0.00
2023-02-26T07:50:11.844Z,0.00
2023-02-26T07:52:39.702Z,0.00
2023-02-26T07:55:08.296Z,0.50
2023-02-26T07:57:36.270Z,1.00
2023-02-26T08:00:09.724Z,0.50
2023-02-26T08:02:37.816Z,1.00
2023-02-26T08:05:07.355Z,1.00
2023-02-26T08:07:35.284Z,1.00
2023-02-26T08:10:03.437Z,1.75
2023-02-26T08:12:31.410Z,1.00
2023-02-26T08:14:59.296Z,2.00
2023-02-26T08:17:27.352Z,2.00
2023-02-26T08:19:55.555Z,1.00
2023-02-26T08:22:25.030Z,2.00
2023-02-26T08:24:52.946Z,1.00
2023-02-26T08:27:20.862Z,2.00
2023-02-26T08:29:50.331Z,1.25
2023-02-26T08:32:19.790Z,1.00
2023-02-26T08:34:47.909Z,1.00
2023-02-26T08:37:16.050Z,1.00
2023-02-26T08:39:45.638Z,2.00
2023-02-26T08:42:16.344Z,2.00
2023-02-26T08:44:44.241Z,1.00
2023-02-26T08:47:13.610Z,1.50
2023-02-26T08:49:43.214Z,2.00
2023-02-26T08:52:11.123Z,1.75
2023-02-26T08:54:39.074Z,1.00
2023-02-26T08:57:08.300Z,1.00
2023-02-26T08:59:36.473Z,1.25
2023-02-26T09:02:04.429Z,1.75
2023-02-26T09:04:32.369Z,1.00
2023-02-26T09:07:00.268Z,1.00
2023-02-26T09:09:28.441Z,1.00
2023-02-26T09:11:56.294Z,1.75
2023-02-26T09:14:25.565Z,1.00
2023-02-26T09:16:53.477Z,1.00
2023-02-26T09:19:21.734Z,1.75
2023-02-26T09:21:49.635Z,1.00
2023-02-26T09:24:17.561Z,1.00
2023-02-26T09:26:45.504Z,1.00
2023-02-26T09:29:14.482Z,1.00
2023-02-26T09:31:44.042Z,2.00
2023-02-26T09:34:12.617Z,1.00
2023-02-26T09:36:40.523Z,1.00
2023-02-26T09:39:09.806Z,1.00
2023-02-26T09:41:39.745Z,1.00
2023-02-26T09:44:19.306Z,1.00
2023-02-26T09:46:52.344Z,1.00
2023-02-26T09:49:28.427Z,1.25
2023-02-26T09:51:59.442Z,1.00
2023-02-26T09:54:30.101Z,1.00
2023-02-26T09:57:00.252Z,0.25
2023-02-26T09:59:28.949Z,0.75
2023-02-26T10:02:01.024Z,1.00
2023-02-26T10:04:41.220Z,1.00
2023-02-26T10:07:15.723Z,1.00
2023-02-26T10:10:02.680Z,1.00
2023-02-26T10:12:32.341Z,1.00
2023-02-26T10:15:01.376Z,1.00
2023-02-26T10:17:34.899Z,1.00
2023-02-26T10:20:04.513Z,1.00
2023-02-26T10:22:34.698Z,1.00
2023-02-26T10:25:04.500Z,0.50
2023-02-26T10:27:44.162Z,1.00
2023-02-26T10:30:15.720Z,1.00
2023-02-26T10:32:50.922Z,1.00
2023-02-26T10:35:19.583Z,0.75
2023-02-26T10:37:49.770Z,0.25
2023-02-26T10:40:19.320Z,1.00
2023-02-26T10:42:49.687Z,1.00
2023-02-26T10:45:38.704Z,0.00
2023-02-26T10:48:24.924Z,1.00
2023-02-26T10:50:53.763Z,1.00
2023-02-26T10:53:21.944Z,1.00
2023-02-26T10:55:51.500Z,1.00
2023-02-26T10:58:24.183Z,0.00
2023-02-26T11:00:54.202Z,0.00
2023-02-26T11:03:26.189Z,1.00
2023-02-26T11:05:54.110Z,0.00
2023-02-26T11:08:25.172Z,1.00
2023-02-26T11:10:54.252Z,0.00
2023-02-26T11:13:22.719Z,0.50
2023-02-26T11:15:52.231Z,1.00
2023-02-26T11:18:23.135Z,0.50
2023-02-26T11:20:53.760Z,1.00
2023-02-26T11:23:22.459Z,1.00
2023-02-26T11:25:54.645Z,1.00
2023-02-26T11:28:24.286Z,1.00
2023-02-26T11:30:54.338Z,1.00
2023-02-26T11:33:25.975Z,0.25
2023-02-26T11:36:00.371Z,1.00
2023-02-26T11:38:28.577Z,1.00
2023-02-26T11:40:57.765Z,1.00
2023-02-26T11:43:28.388Z,0.00
2023-02-26T11:45:57.288Z,1.00
2023-02-26T11:48:26.578Z,0.25
2023-02-26T11:50:58.215Z,1.00
2023-02-26T11:53:28.317Z,0.50
2023-02-26T11:56:00.934Z,0.00
2023-02-26T11:58:30.954Z,1.00
2023-02-26T12:00:59.852Z,1.00
2023-02-26T12:03:29.298Z,1.00
2023-02-26T12:05:58.565Z,1.00
2023-02-26T12:08:29.285Z,0.00
2023-02-26T12:11:06.454Z,0.00
2023-02-26T12:13:36.645Z,0.00
2023-02-26T12:16:07.337Z,1.00
2023-02-26T12:18:53.681Z,1.00
2023-02-26T12:21:33.347Z,0.50
2023-02-26T12:24:42.849Z,1.00
2023-02-26T12:27:15.265Z,0.00
2023-02-26T12:29:51.845Z,0.00
2023-02-26T12:32:40.975Z,1.00
2023-02-26T12:35:33.693Z,0.00
2023-02-26T12:38:09.791Z,0.00
2023-02-26T12:40:48.460Z,0.00
2023-02-26T12:43:19.676Z,1.00
2023-02-26T12:45:53.851Z,0.50
2023-02-26T12:48:43.606Z,0.00
2023-02-26T12:51:16.693Z,0.00
2023-02-26T12:54:01.206Z,0.50
2023-02-26T12:57:03.044Z,1.00
2023-02-26T12:59:41.575Z,0.00
2023-02-26T13:02:51.363Z,0.75
2023-02-26T13:05:25.294Z,0.00
2023-02-26T13:08:10.766Z,0.25
2023-02-26T13:10:46.321Z,0.00
2023-02-26T13:13:29.298Z,0.00
2023-02-26T13:16:07.613Z,1.00
2023-02-26T13:18:42.221Z,1.00
2023-02-26T13:21:12.429Z,0.00
2023-02-26T13:23:43.887Z,0.00
2023-02-26T13:26:13.128Z,0.00
2023-02-26T13:28:43.623Z,0.00
2023-02-26T13:31:13.758Z,0.75
2023-02-26T13:33:41.723Z,0.00
2023-02-26T13:36:09.862Z,0.00
2023-02-26T13:38:43.453Z,1.00
2023-02-26T13:41:15.980Z,0.00
2023-02-26T13:43:59.356Z,0.00
2023-02-26T13:46:43.926Z,1.00
2023-02-26T13:49:15.671Z,1.00
2023-02-26T13:51:45.612Z,1.00
2023-02-26T13:54:35.293Z,0.00
2023-02-26T13:57:26.289Z,0.25
2023-02-26T13:59:55.986Z,1.00
2023-02-26T14:02:52.116Z,1.00
2023-02-26T14:05:31.608Z,0.75
2023-02-26T14:08:19.320Z,1.00
2023-02-26T14:10:48.037Z,0.75
2023-02-26T14:13:19.389Z,1.00
2023-02-26T14:15:51.460Z,0.75
2023-02-26T14:18:28.689Z,0.25
2023-02-26T14:21:28.222Z,1.00
2023-02-26T14:23:57.814Z,1.00
2023-02-26T14:26:26.578Z,0.00
2023-02-26T14:29:08.140Z,1.00
2023-02-26T14:31:51.907Z,1.00
2023-02-26T14:34:23.114Z,1.00
2023-02-26T14:36:52.872Z,1.00
2023-02-26T14:39:30.380Z,0.75
2023-02-26T14:42:01.388Z,1.00
2023-02-26T14:44:32.145Z,1.00
2023-02-26T14:47:00.412Z,1.00
2023-02-26T14:49:32.151Z,1.00
2023-02-26T14:52:11.321Z,1.00
2023-02-26T14:54:50.335Z,1.00
2023-02-26T14:57:22.999Z,1.00
2023-02-26T15:00:19.066Z,1.00
2023-02-26T15:03:01.915Z,1.00
2023-02-26T15:05:43.429Z,1.00
2023-02-26T15:08:21.623Z,1.00
2023-02-26T15:11:07.366Z,1.00
2023-02-26T15:13:43.391Z,1.00
2023-02-26T15:16:19.926Z,1.00
2023-02-26T15:19:10.897Z,1.00
2023-02-26T15:21:44.741Z,1.00
2023-02-26T15:24:14.446Z,1.00
2023-02-26T15:26:48.051Z,1.00
2023-02-26T15:29:16.039Z,1.00
2023-02-26T15:31:46.345Z,1.00
2023-02-26T15:34:15.113Z,1.00
2023-02-26T15:36:45.372Z,1.00
2023-02-26T15:39:15.925Z,1.00
2023-02-26T15:41:45.324Z,0.50
2023-02-26T15:44:16.547Z,1.00
2023-02-26T15:46:47.172Z,0.25
2023-02-26T15:49:19.108Z,0.00
2023-02-26T15:51:47.290Z,1.00
2023-02-26T15:54:17.609Z,0.00
2023-02-26T15:56:45.559Z,1.00
2023-02-26T15:59:17.237Z,1.00
2023-02-26T16:01:46.650Z,1.00
2023-02-26T16:04:19.031Z,1.00
2023-02-26T16:06:48.359Z,1.00
2023-02-26T16:09:18.170Z,1.00
2023-02-26T16:11:46.107Z,1.00
2023-02-26T16:14:16.994Z,1.00
2023-02-26T16:16:47.565Z,1.00
2023-02-26T16:19:15.920Z,1.25
2023-02-26T16:21:43.797Z,1.00
2023-02-26T16:24:14.962Z,1.00
2023-02-26T16:26:44.167Z,1.00
2023-02-26T16:29:14.258Z,1.00
2023-02-26T16:31:42.518Z,1.00
2023-02-26T16:34:25.469Z,1.00
2023-02-26T16:36:54.464Z,1.00
2023-02-26T16:39:24.367Z,1.75
2023-02-26T16:42:03.467Z,1.00
2023-02-26T16:44:53.362Z,1.25
2023-02-26T16:47:21.905Z,2.00
2023-02-26T16:49:51.708Z,1.00
2023-02-26T16:52:21.050Z,1.00
2023-02-26T16:54:56.854Z,1.00
2023-02-26T16:57:27.553Z,1.50
2023-02-26T16:59:57.217Z,1.00
2023-02-26T17:02:26.196Z,0.25
2023-02-26T17:04:56.152Z,2.00
2023-02-26T17:07:29.228Z,2.00
2023-02-26T17:09:58.752Z,1.00
2023-02-26T17:12:31.988Z,1.00
2023-02-26T17:15:02.002Z,1.00
2023-02-26T17:17:30.202Z,2.00
2023-02-26T17:19:59.787Z,1.75
2023-02-26T17:22:29.025Z,1.00
2023-02-26T17:24:56.987Z,1.00
2023-02-26T17:27:28.255Z,2.00
2023-02-26T17:29:56.215Z,2.25
2023-02-26T17:32:26.700Z,2.00
2023-02-26T17:34:54.783Z,1.50
2023-02-26T17:37:24.143Z,1.50
2023-02-26T17:39:52.410Z,2.00
2023-02-26T17:42:21.408Z,2.00
2023-02-26T17:44:51.195Z,1.50
2023-02-26T17:47:20.562Z,2.00
2023-02-26T17:49:48.897Z,1.75
2023-02-26T17:52:17.287Z,2.00
2023-02-26T17:54:46.539Z,3.00
2023-02-26T17:57:17.066Z,2.00
2023-02-26T17:59:46.183Z,2.00
2023-02-26T18:02:17.086Z,2.00
2023-02-26T18:04:45.351Z,2.00
2023-02-26T18:07:16.322Z,2.00
2023-02-26T18:09:46.504Z,2.00
2023-02-26T18:12:14.816Z,2.00
2023-02-26T18:14:43.063Z,2.00
2023-02-26T18:17:12.886Z,2.00
2023-02-26T18:19:41.395Z,2.00
2023-02-26T18:22:12.480Z,2.00
2023-02-26T18:24:41.370Z,2.00
2023-02-26T18:27:13.744Z,2.75
2023-02-26T18:29:41.660Z,3.00
2023-02-26T18:32:13.404Z,2.75
2023-02-26T18:34:41.423Z,3.00
2023-02-26T18:37:11.368Z,3.00
2023-02-26T18:39:39.304Z,3.00
2023-02-26T18:42:07.276Z,3.00
2023-02-26T18:44:37.911Z,3.50
2023-02-26T18:47:06.264Z,3.25
2023-02-26T18:49:34.463Z,3.00
2023-02-26T18:52:02.605Z,3.00
2023-02-26T18:54:30.861Z,3.00
2023-02-26T18:56:58.788Z,3.00
2023-02-26T18:59:27.044Z,3.00
2023-02-26T19:01:56.415Z,4.00
2023-02-26T19:04:24.472Z,4.00
2023-02-26T19:06:52.372Z,4.00
2023-02-26T19:09:21.261Z,3.00
2023-02-26T19:11:51.523Z,4.00
2023-02-26T19:14:19.471Z,4.50
2023-02-26T19:16:47.401Z,3.00
2023-02-26T19:19:20.215Z,4.00
2023-02-26T19:21:48.216Z,4.00
2023-02-26T19:24:16.248Z,4.50
2023-02-26T19:26:44.316Z,3.00
2023-02-26T19:29:14.628Z,4.00
2023-02-26T19:31:42.790Z,4.25
2023-02-26T19:34:11.204Z,5.00
2023-02-26T19:36:43.452Z,4.25
2023-02-26T19:39:12.781Z,4.75
2023-02-26T19:41:40.702Z,4.50
2023-02-26T19:44:08.637Z,4.50
2023-02-26T19:46:37.085Z,4.50
2023-02-26T19:49:05.251Z,5.00
2023-02-26T19:51:33.319Z,5.50
2023-02-26T19:54:02.600Z,5.00
2023-02-26T19:56:30.637Z,4.25
2023-02-26T19:58:58.896Z,4.00
2023-02-26T20:01:27.212Z,6.00
2023-02-26T20:03:55.516Z,4.75
2023-02-26T20:06:23.491Z,5.00
2023-02-26T20:08:52.520Z,5.00
2023-02-26T20:11:21.930Z,5.00
2023-02-26T20:13:49.841Z,5.00
2023-02-26T20:16:17.800Z,5.00
2023-02-26T20:18:46.715Z,6.00
2023-02-26T20:21:14.702Z,5.00
2023-02-26T20:23:42.654Z,5.75
2023-02-26T20:26:11.931Z,5.00
2023-02-26T20:28:42.341Z,5.00
2023-02-26T20:31:10.422Z,4.00
2023-02-26T20:33:39.454Z,5.00
2023-02-26T20:36:08.570Z,5.25
2023-02-26T20:38:36.775Z,5.25
2023-02-26T20:41:04.958Z,4.25
2023-02-26T20:43:32.904Z,5.00
2023-02-26T20:46:02.276Z,6.00
2023-02-26T20:48:31.141Z,5.75
2023-02-26T20:51:02.207Z,5.00
2023-02-26T20:53:30.126Z,6.00
2023-02-26T20:55:58.028Z,6.00
2023-02-26T20:58:26.409Z,5.25
2023-02-26T21:00:56.483Z,5.00
2023-02-26T21:03:25.933Z,5.00
2023-02-26T21:05:54.202Z,5.75
2023-02-26T21:08:22.575Z,6.00
2023-02-26T21:10:51.353Z,5.50
2023-02-26T21:13:19.316Z,5.00
2023-02-26T21:15:47.281Z,6.00
2023-02-26T21:18:16.133Z,6.00
2023-02-26T21:20:45.770Z,6.00
2023-02-26T21:23:13.715Z,5.00
2023-02-26T21:25:41.933Z,6.25
2023-02-26T21:28:10.137Z,6.00
2023-02-26T21:30:38.053Z,6.00
2023-02-26T21:33:07.056Z,5.00
2023-02-26T21:35:35.242Z,6.00
2023-02-26T21:38:04.509Z,5.00
2023-02-26T21:40:32.723Z,5.50
2023-02-26T21:43:00.648Z,6.00
2023-02-26T21:45:28.705Z,5.25
2023-02-26T21:47:56.633Z,5.00
2023-02-26T21:50:24.866Z,6.00
2023-02-26T21:52:52.749Z,6.00
2023-02-26T21:55:22.010Z,5.00
2023-02-26T21:57:49.891Z,6.00
2023-02-26T22:00:19.369Z,6.00
2023-02-26T22:02:47.357Z,5.00
2023-02-26T22:05:15.408Z,5.00
2023-02-26T22:07:44.436Z,5.00
2023-02-26T22:10:13.491Z,5.00
2023-02-26T22:12:42.833Z,5.00
2023-02-26T22:15:10.963Z,5.75
2023-02-26T22:17:38.917Z,5.75
2023-02-26T22:20:09.846Z,5.50
2023-02-26T22:22:38.094Z,5.00
2023-02-26T22:25:06.429Z,4.75
2023-02-26T22:27:34.479Z,3.75
2023-02-26T22:30:04.168Z,4.00
2023-02-26T22:32:32.115Z,5.00
2023-02-26T22:35:00.061Z,4.75
2023-02-26T22:37:27.952Z,4.75
2023-02-26T22:39:56.685Z,5.00
2023-02-26T22:42:24.645Z,4.75
2023-02-26T22:44:52.592Z,4.50
2023-02-26T22:47:21.892Z,4.50
2023-02-26T22:49:50.258Z,4.50
2023-02-26T22:52:18.156Z,5.00
2023-02-26T22:54:46.610Z,5.00
2023-02-26T22:57:14.802Z,5.00
2023-02-26T22:59:43.034Z,5.00
2023-02-26T23:02:10.901Z,5.00
2023-02-26T23:04:40.675Z,4.50
2023-02-26T23:07:08.691Z,5.00
2023-02-26T23:09:37.246Z,5.00
2023-02-26T23:12:05.583Z,5.00
2023-02-26T23:14:33.499Z,5.00
2023-02-26T23:17:01.398Z,4.00
2023-02-26T23:19:29.686Z,5.00
2023-02-26T23:21:59.031Z,5.00
2023-02-26T23:24:27.307Z,5.00
2023-02-26T23:26:55.220Z,5.50
2023-02-26T23:29:23.225Z,4.00
2023-02-26T23:31:51.371Z,5.00
2023-02-26T23:34:19.340Z,5.00
2023-02-26T23:36:47.245Z,5.00
2023-02-26T23:39:16.806Z,4.00
2023-02-26T23:41:44.718Z,4.00
2023-02-26T23:44:12.614Z,4.00
2023-02-26T23:46:40.545Z,5.00
2023-02-26T23:49:09.599Z,4.25
2023-02-26T23:51:38.373Z,5.00
2023-02-26T23:54:06.390Z,5.00
2023-02-26T23:56:36.730Z,5.00
2023-02-26T23:59:05.259Z,4.25
